Time;durP1;ratioP1;P1;durP2;ratioP2;P2;SDS_P1;SDS_P2;PMS_P1;PMS_P2;Temp;Humidity;BMP_temperature;BMP_pressure;BME280_temperature;BME280_humidity;BME280_pressure;Samples;Min_cycle;Max_cycle;Signal;HPM_P1;HPM_P2
2023/12/27 00:00:42;;;;;;;9.52;3.55;;;;;;;;;;4776702;30;20039;-96
2023/12/27 00:03:28;;;;;;;13.18;2.92;;;;;;;;;;4776743;30;20532;-96
2023/12/27 00:05:54;;;;;;;9.20;2.45;;;;;;;;;;4777602;30;20056;-96
2023/12/27 00:08:20;;;;;;;11.77;4.38;;;;;;;;;;4777889;30;20063;-96
2023/12/27 00:10:46;;;;;;;9.48;3.58;;;;;;;;;;4776958;30;20055;-96
2023/12/27 00:13:13;;;;;;;8.10;2.60;;;;;;;;;;4777402;30;20059;-96
2023/12/27 00:15:44;;;;;;;8.63;3.03;;;;;;;;;;4777920;30;20059;-96
2023/12/27 00:18:11;;;;;;;8.95;2.72;;;;;;;;;;4776767;30;20088;-96
2023/12/27 00:20:40;;;;;;;12.77;4.05;;;;;;;;;;4777930;30;20075;-96
2023/12/27 00:23:07;;;;;;;14.27;2.88;;;;;;;;;;4779197;30;20066;-96
2023/12/27 00:25:33;;;;;;;8.20;3.25;;;;;;;;;;4777226;30;20063;-96
2023/12/27 00:27:59;;;;;;;4.97;2.45;;;;;;;;;;4775909;30;20051;-96
2023/12/27 00:30:25;;;;;;;6.60;3.30;;;;;;;;;;4778575;30;20147;-95
2023/12/27 00:32:51;;;;;;;12.45;3.63;;;;;;;;;;4777979;30;20051;-96
2023/12/27 00:35:18;;;;;;;12.70;2.83;;;;;;;;;;4775144;24;20071;-96
2023/12/27 00:37:58;;;;;;;8.98;3.35;;;;;;;;;;4733279;24;20057;-96
2023/12/27 00:40:27;;;;;;;11.70;3.25;;;;;;;;;;4773858;30;20059;-96
2023/12/27 00:43:00;;;;;;;9.32;3.30;;;;;;;;;;4760494;30;20059;-96
2023/12/27 00:45:29;;;;;;;12.05;3.10;;;;;;;;;;4761230;30;20059;-94
2023/12/27 00:47:55;;;;;;;6.20;2.70;;;;;;;;;;4759980;30;20060;-96
2023/12/27 00:50:23;;;;;;;5.50;2.88;;;;;;;;;;4765701;24;20532;-96
2023/12/27 00:53:23;;;;;;;7.43;2.80;;;;;;;;;;4759521;30;20059;-96
2023/12/27 00:55:56;;;;;;;6.78;3.35;;;;;;;;;;4773415;30;20089;-96
2023/12/27 00:58:23;;;;;;;9.80;2.85;;;;;;;;;;4759281;30;20059;-96
2023/12/27 01:00:57;;;;;;;10.35;4.07;;;;;;;;;;4781418;24;20055;-96
2023/12/27 01:03:45;;;;;;;9.32;2.75;;;;;;;;;;4744666;30;20066;-96
2023/12/27 01:12:03;;;;;;;13.13;3.42;;;;;;;;;;4779984;30;20179;-96
2023/12/27 01:14:29;;;;;;;9.32;3.55;;;;;;;;;;4750004;30;20152;-96
2023/12/27 01:16:55;;;;;;;5.85;3.15;;;;;;;;;;4735761;30;20148;-96
2023/12/27 01:19:21;;;;;;;14.82;2.75;;;;;;;;;;4751466;30;20098;-96
2023/12/27 01:21:54;;;;;;;13.20;2.72;;;;;;;;;;4750689;30;20051;-96
2023/12/27 01:24:21;;;;;;;11.13;3.28;;;;;;;;;;4736032;30;20095;-96
2023/12/27 01:26:47;;;;;;;11.32;2.70;;;;;;;;;;4750206;30;20143;-95
2023/12/27 01:29:13;;;;;;;9.75;3.05;;;;;;;;;;4735991;30;20056;-94
2023/12/27 01:31:39;;;;;;;12.35;4.35;;;;;;;;;;4750061;30;20524;-96
2023/12/27 01:34:05;;;;;;;10.48;3.13;;;;;;;;;;4750091;30;20047;-96
2023/12/27 01:36:31;;;;;;;7.80;2.95;;;;;;;;;;4749329;30;20480;-96
2023/12/27 01:38:57;;;;;;;6.22;2.80;;;;;;;;;;4779708;30;20124;-96
2023/12/27 01:41:23;;;;;;;6.28;3.25;;;;;;;;;;4779516;30;20490;-96
2023/12/27 01:43:50;;;;;;;14.60;3.75;;;;;;;;;;4780182;30;20147;-95
2023/12/27 01:46:16;;;;;;;8.98;3.42;;;;;;;;;;4763530;30;20132;-95
2023/12/27 01:48:43;;;;;;;9.45;3.67;;;;;;;;;;4770570;30;20544;-94
2023/12/27 01:51:09;;;;;;;5.30;2.88;;;;;;;;;;4746655;30;20126;-96
2023/12/27 01:53:35;;;;;;;6.70;2.40;;;;;;;;;;4775949;30;20494;-95
2023/12/27 01:56:02;;;;;;;11.32;3.08;;;;;;;;;;4776407;30;20060;-94
2023/12/27 01:58:31;;;;;;;7.57;2.80;;;;;;;;;;4775013;30;20060;-95
2023/12/27 02:00:57;;;;;;;10.00;3.00;;;;;;;;;;4775742;30;20068;-96
2023/12/27 02:03:24;;;;;;;4.25;2.88;;;;;;;;;;4776476;30;20123;-94
2023/12/27 02:05:51;;;;;;;9.05;3.28;;;;;;;;;;4747247;30;20119;-95
2023/12/27 02:08:18;;;;;;;9.00;2.22;;;;;;;;;;4774821;30;20317;-96
2023/12/27 02:10:44;;;;;;;11.40;2.83;;;;;;;;;;4717406;30;20072;-95
2023/12/27 02:13:10;;;;;;;14.35;4.22;;;;;;;;;;4733202;30;20052;-95
2023/12/27 02:15:37;;;;;;;4.47;2.65;;;;;;;;;;4732836;30;20056;-95
2023/12/27 02:18:04;;;;;;;8.10;4.13;;;;;;;;;;4731973;30;20059;-94
2023/12/27 02:20:31;;;;;;;9.07;2.97;;;;;;;;;;4732840;30;20056;-96
2023/12/27 02:22:57;;;;;;;10.05;2.92;;;;;;;;;;4732264;30;20064;-94
2023/12/27 02:25:26;;;;;;;8.77;3.50;;;;;;;;;;4731682;30;20086;-96
2023/12/27 02:27:52;;;;;;;7.90;3.38;;;;;;;;;;4731194;30;20056;-96
2023/12/27 02:30:19;;;;;;;7.07;2.97;;;;;;;;;;4724806;30;20109;-96
2023/12/27 02:32:46;;;;;;;9.85;3.40;;;;;;;;;;4724111;30;20419;-96
2023/12/27 02:35:12;;;;;;;13.40;2.90;;;;;;;;;;4724588;30;20601;-96
2023/12/27 02:37:38;;;;;;;12.07;3.40;;;;;;;;;;4723879;30;20142;-96
2023/12/27 02:40:05;;;;;;;14.57;3.42;;;;;;;;;;4723929;30;20116;-96
2023/12/27 02:42:31;;;;;;;15.15;3.40;;;;;;;;;;4723458;30;20062;-96
2023/12/27 02:44:57;;;;;;;15.55;4.30;;;;;;;;;;4723881;30;20147;-96
2023/12/27 02:47:23;;;;;;;11.20;3.25;;;;;;;;;;4723387;30;20060;-96
2023/12/27 02:49:49;;;;;;;8.32;3.05;;;;;;;;;;4723832;30;20056;-96
2023/12/27 02:52:18;;;;;;;7.28;3.17;;;;;;;;;;4726458;30;20056;-96
2023/12/27 02:54:44;;;;;;;8.75;2.75;;;;;;;;;;4727139;30;20056;-95
2023/12/27 02:57:13;;;;;;;8.15;2.83;;;;;;;;;;4727333;30;20063;-96
2023/12/27 02:59:39;;;;;;;9.15;3.10;;;;;;;;;;4733692;30;20052;-94
2023/12/27 03:02:05;;;;;;;9.43;2.70;;;;;;;;;;4734584;30;20056;-96
2023/12/27 03:04:31;;;;;;;9.20;2.78;;;;;;;;;;4734014;30;20056;-96
2023/12/27 03:06:57;;;;;;;12.73;3.25;;;;;;;;;;4719204;30;20086;-96
2023/12/27 03:09:24;;;;;;;9.93;3.92;;;;;;;;;;4718850;30;20095;-95
2023/12/27 03:11:51;;;;;;;6.20;3.05;;;;;;;;;;4733773;30;20116;-95
2023/12/27 03:14:17;;;;;;;7.90;3.15;;;;;;;;;;4733854;30;20074;-95
2023/12/27 03:16:43;;;;;;;9.57;3.20;;;;;;;;;;4733267;30;20056;-95
2023/12/27 03:19:09;;;;;;;9.48;2.90;;;;;;;;;;4733336;30;20052;-95
2023/12/27 03:21:35;;;;;;;9.25;3.20;;;;;;;;;;4734020;30;20491;-95
2023/12/27 03:24:01;;;;;;;20.52;3.95;;;;;;;;;;4733123;30;20056;-95
2023/12/27 03:26:27;;;;;;;9.23;3.20;;;;;;;;;;4718552;30;20125;-96
2023/12/27 03:28:53;;;;;;;7.13;3.10;;;;;;;;;;4741950;30;20087;-95
2023/12/27 03:31:20;;;;;;;7.28;2.90;;;;;;;;;;4733768;30;20060;-95
2023/12/27 03:33:46;;;;;;;9.82;3.55;;;;;;;;;;4732347;30;20391;-96
2023/12/27 03:36:12;;;;;;;10.60;3.40;;;;;;;;;;4718778;30;20060;-96
2023/12/27 03:38:40;;;;;;;8.82;3.53;;;;;;;;;;4732933;30;20059;-96
2023/12/27 03:41:06;;;;;;;7.65;3.10;;;;;;;;;;4732848;30;20064;-96
2023/12/27 03:43:33;;;;;;;16.13;3.83;;;;;;;;;;4732035;30;20056;-96
2023/12/27 03:45:59;;;;;;;11.95;2.92;;;;;;;;;;4732011;30;20068;-94
2023/12/27 03:48:25;;;;;;;5.47;2.92;;;;;;;;;;4731636;30;20060;-95
2023/12/27 03:50:51;;;;;;;9.48;3.25;;;;;;;;;;4717545;30;20115;-95
2023/12/27 03:53:17;;;;;;;10.27;3.92;;;;;;;;;;4731388;30;20056;-95
2023/12/27 03:55:43;;;;;;;12.20;3.25;;;;;;;;;;4731982;30;20064;-94
2023/12/27 03:58:09;;;;;;;9.25;3.20;;;;;;;;;;4732488;30;20083;-94
2023/12/27 04:00:35;;;;;;;10.65;3.63;;;;;;;;;;4732281;30;20518;-95
2023/12/27 04:03:01;;;;;;;11.90;3.25;;;;;;;;;;4731229;30;20057;-95
2023/12/27 04:05:28;;;;;;;13.82;3.55;;;;;;;;;;4717416;30;20090;-95
2023/12/27 04:07:54;;;;;;;12.02;3.08;;;;;;;;;;4731492;30;20095;-96
2023/12/27 04:10:20;;;;;;;8.13;3.53;;;;;;;;;;4731412;30;20056;-94
2023/12/27 04:12:46;;;;;;;12.40;3.58;;;;;;;;;;4732050;30;20064;-95
2023/12/27 04:15:12;;;;;;;18.55;3.17;;;;;;;;;;4732012;30;20131;-95
2023/12/27 04:17:39;;;;;;;15.40;3.42;;;;;;;;;;4732375;30;20495;-96
2023/12/27 04:20:06;;;;;;;9.43;3.88;;;;;;;;;;4731486;30;20058;-96
2023/12/27 04:22:32;;;;;;;8.82;3.50;;;;;;;;;;4731993;30;20099;-95
2023/12/27 04:24:58;;;;;;;7.72;3.20;;;;;;;;;;4732627;30;20052;-96
2023/12/27 04:27:27;;;;;;;8.27;3.33;;;;;;;;;;4732935;30;20064;-95
2023/12/27 04:29:53;;;;;;;9.32;4.07;;;;;;;;;;4731273;30;20060;-95
2023/12/27 04:32:19;;;;;;;6.32;3.00;;;;;;;;;;4731484;30;20052;-95
2023/12/27 04:34:45;;;;;;;12.30;2.75;;;;;;;;;;4730906;30;20052;-96
2023/12/27 04:37:12;;;;;;;9.35;3.67;;;;;;;;;;4731005;30;20123;-94
2023/12/27 04:39:38;;;;;;;7.00;3.70;;;;;;;;;;4717195;30;20052;-96
2023/12/27 04:42:04;;;;;;;10.27;3.00;;;;;;;;;;4730742;30;20128;-95
2023/12/27 04:44:31;;;;;;;16.85;3.05;;;;;;;;;;4730247;30;20586;-93
2023/12/27 04:46:57;;;;;;;9.15;3.17;;;;;;;;;;4729654;30;20056;-95
2023/12/27 04:49:23;;;;;;;9.45;3.45;;;;;;;;;;4714974;30;20506;-96
2023/12/27 04:51:49;;;;;;;9.68;3.30;;;;;;;;;;4729751;30;20146;-95
2023/12/27 04:54:15;;;;;;;12.32;3.38;;;;;;;;;;4728115;30;20102;-95
2023/12/27 04:56:41;;;;;;;12.77;4.15;;;;;;;;;;4728991;30;20059;-95
2023/12/27 04:59:08;;;;;;;6.07;2.53;;;;;;;;;;4728882;30;20055;-94
2023/12/27 05:01:34;;;;;;;12.63;4.05;;;;;;;;;;4728511;30;20060;-96
2023/12/27 05:04:00;;;;;;;15.85;4.13;;;;;;;;;;4727827;30;20052;-95
2023/12/27 05:06:26;;;;;;;8.18;2.90;;;;;;;;;;4727636;30;20494;-95
2023/12/27 05:08:54;;;;;;;8.27;2.72;;;;;;;;;;4713386;30;20064;-95
2023/12/27 05:11:21;;;;;;;12.23;4.22;;;;;;;;;;4711984;30;20060;-95
2023/12/27 05:13:48;;;;;;;6.53;3.20;;;;;;;;;;4727097;30;20095;-95
2023/12/27 05:16:15;;;;;;;8.52;3.40;;;;;;;;;;4726219;30;20084;-95
2023/12/27 05:18:42;;;;;;;10.13;4.05;;;;;;;;;;4727081;30;20067;-96
2023/12/27 05:21:08;;;;;;;9.70;3.20;;;;;;;;;;4712688;30;20071;-95
2023/12/27 05:23:35;;;;;;;8.73;2.95;;;;;;;;;;4726827;30;20052;-95
2023/12/27 05:26:04;;;;;;;8.77;4.10;;;;;;;;;;4770992;30;20098;-96
2023/12/27 05:28:30;;;;;;;10.23;4.82;;;;;;;;;;4771074;30;20052;-95
2023/12/27 05:30:56;;;;;;;7.03;3.08;;;;;;;;;;4740139;30;20113;-95
2023/12/27 05:33:25;;;;;;;10.32;3.55;;;;;;;;;;4770483;30;20044;-94
2023/12/27 05:35:52;;;;;;;10.20;3.30;;;;;;;;;;4755333;30;20060;-95
2023/12/27 05:38:18;;;;;;;10.48;3.78;;;;;;;;;;4770442;30;20055;-95
2023/12/27 05:40:44;;;;;;;10.20;3.55;;;;;;;;;;4769611;30;20056;-94
2023/12/27 05:43:11;;;;;;;5.65;2.78;;;;;;;;;;4772066;30;20148;-96
2023/12/27 05:45:37;;;;;;;15.70;3.33;;;;;;;;;;4774385;30;20095;-94
2023/12/27 05:48:04;;;;;;;8.55;3.33;;;;;;;;;;4730523;30;20597;-93
2023/12/27 05:50:30;;;;;;;6.10;3.38;;;;;;;;;;4715352;30;20114;-95
2023/12/27 05:52:56;;;;;;;14.27;2.90;;;;;;;;;;4730054;30;20056;-95
2023/12/27 05:55:23;;;;;;;5.50;3.08;;;;;;;;;;4730043;30;20084;-95
2023/12/27 05:57:49;;;;;;;7.13;3.03;;;;;;;;;;4728874;30;20647;-93
2023/12/27 06:00:15;;;;;;;10.75;3.00;;;;;;;;;;4713448;30;20052;-94
2023/12/27 06:02:42;;;;;;;16.08;3.60;;;;;;;;;;4725896;30;20060;-95
2023/12/27 06:05:09;;;;;;;13.38;4.10;;;;;;;;;;4726005;30;20056;-94
2023/12/27 06:07:36;;;;;;;8.50;3.10;;;;;;;;;;4726073;30;20048;-96
2023/12/27 06:10:03;;;;;;;11.68;2.92;;;;;;;;;;4725448;30;20147;-95
2023/12/27 06:12:29;;;;;;;18.25;4.10;;;;;;;;;;4725642;30;20558;-95
2023/12/27 06:14:55;;;;;;;11.40;3.40;;;;;;;;;;4711366;30;20137;-94
2023/12/27 06:17:21;;;;;;;9.18;3.72;;;;;;;;;;4725517;30;20082;-95
2023/12/27 06:19:47;;;;;;;12.52;4.13;;;;;;;;;;4710339;30;20048;-95
2023/12/27 06:22:13;;;;;;;9.00;2.88;;;;;;;;;;4727677;30;20066;-95
2023/12/27 06:24:40;;;;;;;7.15;3.40;;;;;;;;;;4725154;30;20059;-96
2023/12/27 06:27:06;;;;;;;10.43;3.83;;;;;;;;;;4724155;30;20060;-96
2023/12/27 06:29:35;;;;;;;7.95;3.47;;;;;;;;;;4725283;30;20053;-95
2023/12/27 06:32:03;;;;;;;12.65;3.63;;;;;;;;;;4725150;30;20121;-96
2023/12/27 06:34:29;;;;;;;10.00;3.60;;;;;;;;;;4725601;30;20052;-96
2023/12/27 06:36:55;;;;;;;8.13;3.97;;;;;;;;;;4725240;30;20127;-96
2023/12/27 06:39:21;;;;;;;9.80;4.35;;;;;;;;;;4725226;30;20060;-96
2023/12/27 06:41:47;;;;;;;14.73;4.47;;;;;;;;;;4740080;30;20175;-95
2023/12/27 06:44:13;;;;;;;10.38;4.15;;;;;;;;;;4725670;30;20080;-96
2023/12/27 06:46:39;;;;;;;9.57;5.07;;;;;;;;;;4725704;30;20056;-95
2023/12/27 06:49:06;;;;;;;13.48;4.40;;;;;;;;;;4725355;30;20048;-95
2023/12/27 06:51:32;;;;;;;15.68;5.10;;;;;;;;;;4724984;30;20573;-95
2023/12/27 06:53:58;;;;;;;12.73;5.05;;;;;;;;;;4710651;30;20082;-96
2023/12/27 06:56:24;;;;;;;9.23;4.25;;;;;;;;;;4724812;30;20064;-96
2023/12/27 06:58:50;;;;;;;8.70;5.05;;;;;;;;;;4724420;30;20087;-96
2023/12/27 07:01:16;;;;;;;11.38;3.97;;;;;;;;;;4724822;30;20064;-96
2023/12/27 07:03:42;;;;;;;11.23;4.65;;;;;;;;;;4709661;30;20052;-96
2023/12/27 07:06:09;;;;;;;9.35;3.85;;;;;;;;;;4724236;30;20056;-96
2023/12/27 07:08:38;;;;;;;8.38;3.90;;;;;;;;;;4724219;30;20060;-96
2023/12/27 07:11:04;;;;;;;9.70;4.00;;;;;;;;;;4724933;30;20056;-95
2023/12/27 07:13:30;;;;;;;5.68;3.45;;;;;;;;;;4725007;30;20514;-95
2023/12/27 07:15:56;;;;;;;8.23;3.45;;;;;;;;;;4724928;30;20159;-96
2023/12/27 07:18:22;;;;;;;7.68;4.43;;;;;;;;;;4724805;30;20114;-96
2023/12/27 07:20:48;;;;;;;8.70;3.60;;;;;;;;;;4724468;30;20052;-95
2023/12/27 07:23:14;;;;;;;12.57;3.58;;;;;;;;;;4765220;30;20444;-95
2023/12/27 07:25:40;;;;;;;9.77;3.42;;;;;;;;;;4724215;30;20056;-95
2023/12/27 07:28:06;;;;;;;5.88;3.47;;;;;;;;;;4724453;30;20060;-95
2023/12/27 07:30:33;;;;;;;11.88;3.78;;;;;;;;;;4724544;30;20521;-95
2023/12/27 07:32:59;;;;;;;6.93;3.45;;;;;;;;;;4725234;30;20053;-95
2023/12/27 07:35:25;;;;;;;6.60;3.22;;;;;;;;;;4724370;30;20064;-96
2023/12/27 07:37:52;;;;;;;5.80;3.10;;;;;;;;;;4724339;30;20080;-95
2023/12/27 07:40:20;;;;;;;10.48;3.25;;;;;;;;;;4705097;30;20130;-96
2023/12/27 07:42:48;;;;;;;14.70;3.70;;;;;;;;;;4724250;30;20076;-96
2023/12/27 07:45:14;;;;;;;12.55;3.17;;;;;;;;;;4712148;30;20140;-96
2023/12/27 07:47:40;;;;;;;18.23;3.83;;;;;;;;;;4712613;30;20048;-95
2023/12/27 07:50:07;;;;;;;8.23;2.83;;;;;;;;;;4727051;30;20063;-96
2023/12/27 07:52:33;;;;;;;12.15;3.00;;;;;;;;;;4727199;30;20056;-95
2023/12/27 07:55:03;;;;;;;7.57;2.55;;;;;;;;;;4727110;30;20060;-96
2023/12/27 07:57:29;;;;;;;13.38;2.88;;;;;;;;;;4726289;30;20059;-95
2023/12/27 07:59:57;;;;;;;17.17;3.58;;;;;;;;;;4712355;30;20048;-95
2023/12/27 08:02:23;;;;;;;11.15;2.90;;;;;;;;;;4712176;30;20056;-96
2023/12/27 08:04:49;;;;;;;8.93;3.10;;;;;;;;;;4726784;30;20064;-95
2023/12/27 08:07:23;;;;;;;14.27;3.58;;;;;;;;;;4726561;30;20093;-95
2023/12/27 08:09:49;;;;;;;13.13;3.20;;;;;;;;;;4726398;30;20088;-96
2023/12/27 08:12:18;;;;;;;9.15;3.95;;;;;;;;;;4726401;30;20060;-96
2023/12/27 08:14:44;;;;;;;8.20;2.42;;;;;;;;;;4712024;30;20056;-96
2023/12/27 08:17:10;;;;;;;9.68;3.38;;;;;;;;;;4725435;30;20060;-96
2023/12/27 08:19:38;;;;;;;5.60;2.60;;;;;;;;;;4711086;30;20455;-95
2023/12/27 08:22:05;;;;;;;8.35;3.08;;;;;;;;;;4710639;30;20052;-94
2023/12/27 08:24:31;;;;;;;8.60;2.75;;;;;;;;;;4725202;30;20060;-95
2023/12/27 08:26:58;;;;;;;10.57;3.47;;;;;;;;;;4725240;30;20060;-96
2023/12/27 08:29:25;;;;;;;9.50;3.05;;;;;;;;;;4725046;30;20142;-96
2023/12/27 08:31:51;;;;;;;8.75;2.30;;;;;;;;;;4725254;30;20095;-95
2023/12/27 08:34:17;;;;;;;17.13;3.05;;;;;;;;;;4725300;30;20048;-96
2023/12/27 08:36:47;;;;;;;11.20;2.88;;;;;;;;;;4710415;30;20083;-94
2023/12/27 08:39:14;;;;;;;16.50;3.58;;;;;;;;;;4724496;30;20055;-95
2023/12/27 08:41:40;;;;;;;11.20;2.63;;;;;;;;;;4724697;30;20059;-96
2023/12/27 08:44:06;;;;;;;9.75;3.17;;;;;;;;;;4724727;30;20570;-95
2023/12/27 08:46:32;;;;;;;10.77;2.53;;;;;;;;;;4730310;30;20060;-94
2023/12/27 08:48:58;;;;;;;8.38;3.38;;;;;;;;;;4727072;30;20090;-96
2023/12/27 08:51:25;;;;;;;8.75;3.10;;;;;;;;;;4740814;30;20098;-95
2023/12/27 08:53:51;;;;;;;9.93;3.65;;;;;;;;;;4735997;30;20175;-95
2023/12/27 08:56:17;;;;;;;5.07;2.55;;;;;;;;;;4733910;30;20071;-95
2023/12/27 08:58:43;;;;;;;10.98;3.63;;;;;;;;;;4719151;30;20052;-96
2023/12/27 09:01:17;;;;;;;15.77;5.43;;;;;;;;;;4732199;30;20060;-95
2023/12/27 09:03:43;;;;;;;18.40;5.22;;;;;;;;;;4728160;30;20419;-95
2023/12/27 09:06:12;;;;;;;16.90;6.70;;;;;;;;;;4724602;30;20121;-96
2023/12/27 09:08:38;;;;;;;15.30;5.20;;;;;;;;;;4709335;30;20114;-96
2023/12/27 09:11:05;;;;;;;12.15;4.18;;;;;;;;;;4724052;30;20143;-94
2023/12/27 09:13:33;;;;;;;12.13;3.35;;;;;;;;;;4709514;30;20048;-95
2023/12/27 09:16:02;;;;;;;9.30;4.70;;;;;;;;;;4724462;30;20135;-95
2023/12/27 09:18:28;;;;;;;7.40;4.05;;;;;;;;;;4724172;30;20152;-96
2023/12/27 09:20:54;;;;;;;8.52;4.80;;;;;;;;;;4724278;30;20165;-96
2023/12/27 09:23:26;;;;;;;7.80;4.53;;;;;;;;;;4709663;30;20201;-95
2023/12/27 09:25:52;;;;;;;8.90;3.53;;;;;;;;;;4724602;30;20067;-96
2023/12/27 09:28:25;;;;;;;10.07;3.97;;;;;;;;;;4724663;30;20059;-94
2023/12/27 09:30:51;;;;;;;13.98;4.65;;;;;;;;;;4725075;30;20052;-96
2023/12/27 09:33:17;;;;;;;9.77;4.53;;;;;;;;;;4723772;30;20052;-96
2023/12/27 09:35:46;;;;;;;8.95;3.95;;;;;;;;;;4723812;30;20056;-95
2023/12/27 09:38:15;;;;;;;8.60;3.97;;;;;;;;;;4737798;30;20059;-96
2023/12/27 09:40:44;;;;;;;6.32;4.10;;;;;;;;;;4738104;30;20048;-96
2023/12/27 09:43:15;;;;;;;8.55;4.15;;;;;;;;;;4738312;30;20075;-96
2023/12/27 09:45:41;;;;;;;9.50;4.03;;;;;;;;;;4737720;30;20056;-95
2023/12/27 09:48:15;;;;;;;10.88;4.13;;;;;;;;;;4737205;30;20052;-96
2023/12/27 09:50:51;;;;;;;7.25;4.13;;;;;;;;;;4737210;30;20099;-95
2023/12/27 09:53:17;;;;;;;8.45;3.90;;;;;;;;;;4734974;30;20060;-95
2023/12/27 09:55:45;;;;;;;10.43;3.90;;;;;;;;;;4724073;30;20060;-96
2023/12/27 09:58:11;;;;;;;12.57;4.50;;;;;;;;;;4724162;30;20059;-95
2023/12/27 10:00:40;;;;;;;10.82;3.70;;;;;;;;;;4723213;30;20132;-96
2023/12/27 10:03:10;;;;;;;17.00;4.57;;;;;;;;;;4723807;30;20071;-96
2023/12/27 10:06:15;;;;;;;13.15;4.07;;;;;;;;;;4724547;30;20063;-95
2023/12/27 10:08:41;;;;;;;8.05;4.15;;;;;;;;;;4654083;30;20094;-96
2023/12/27 10:11:09;;;;;;;13.93;4.13;;;;;;;;;;4716358;30;20060;-96
2023/12/27 10:13:39;;;;;;;9.63;5.82;;;;;;;;;;4731312;30;20090;-96
2023/12/27 10:16:05;;;;;;;12.43;4.35;;;;;;;;;;4734833;30;20048;-95
2023/12/27 10:18:31;;;;;;;17.85;4.00;;;;;;;;;;4730059;30;20569;-96
2023/12/27 10:20:58;;;;;;;10.10;4.35;;;;;;;;;;4750780;30;20055;-96
2023/12/27 10:23:24;;;;;;;10.43;4.20;;;;;;;;;;4729741;30;20529;-96
2023/12/27 10:25:52;;;;;;;10.00;4.50;;;;;;;;;;4729463;30;20059;-95
2023/12/27 10:28:24;;;;;;;15.55;5.15;;;;;;;;;;4723831;30;20052;-95
2023/12/27 10:30:56;;;;;;;10.23;4.88;;;;;;;;;;4724039;30;20052;-95
2023/12/27 10:33:23;;;;;;;8.57;5.07;;;;;;;;;;4706653;30;20060;-96
2023/12/27 10:35:51;;;;;;;11.60;5.07;;;;;;;;;;4730486;30;20068;-96
2023/12/27 10:38:18;;;;;;;11.68;4.35;;;;;;;;;;4723644;30;20052;-96
2023/12/27 10:40:44;;;;;;;15.63;5.10;;;;;;;;;;4724392;30;20517;-95
2023/12/27 10:43:10;;;;;;;16.73;5.18;;;;;;;;;;4724537;30;20056;-94
2023/12/27 10:45:38;;;;;;;12.15;5.50;;;;;;;;;;4724576;30;20143;-95
2023/12/27 10:48:04;;;;;;;10.30;4.82;;;;;;;;;;4724389;30;20060;-95
2023/12/27 10:50:31;;;;;;;17.70;4.80;;;;;;;;;;4724225;30;20059;-95
2023/12/27 10:53:06;;;;;;;11.88;5.20;;;;;;;;;;4723407;30;20060;-95
2023/12/27 10:55:32;;;;;;;9.18;5.40;;;;;;;;;;4724194;30;20158;-96
2023/12/27 10:57:59;;;;;;;11.52;5.55;;;;;;;;;;4723538;30;20060;-96
2023/12/27 11:00:25;;;;;;;13.07;4.85;;;;;;;;;;4724240;30;20052;-96
2023/12/27 11:02:52;;;;;;;26.63;8.75;;;;;;;;;;4724142;30;20095;-96
2023/12/27 11:05:22;;;;;;;11.68;5.75;;;;;;;;;;4724618;30;20056;-95
2023/12/27 11:07:50;;;;;;;17.15;6.03;;;;;;;;;;4724256;30;20057;-96
2023/12/27 11:10:17;;;;;;;10.82;5.22;;;;;;;;;;4724730;30;20087;-96
2023/12/27 11:12:46;;;;;;;11.32;5.07;;;;;;;;;;4713165;30;20056;-95
2023/12/27 11:15:16;;;;;;;16.50;5.82;;;;;;;;;;4714119;30;20064;-94
2023/12/27 11:17:42;;;;;;;16.52;5.43;;;;;;;;;;4715162;30;20060;-96
2023/12/27 11:20:12;;;;;;;15.45;6.78;;;;;;;;;;4729581;30;20064;-96
2023/12/27 11:22:43;;;;;;;9.10;4.57;;;;;;;;;;4729640;30;20052;-95
2023/12/27 11:25:15;;;;;;;14.57;5.82;;;;;;;;;;4729035;30;20062;-96
2023/12/27 11:27:42;;;;;;;12.00;4.97;;;;;;;;;;4730663;30;20048;-95
2023/12/27 11:30:31;;;;;;;12.10;5.75;;;;;;;;;;4734408;30;20108;-94
2023/12/27 11:32:57;;;;;;;17.25;5.95;;;;;;;;;;4745833;30;20063;-95
2023/12/27 11:35:31;;;;;;;12.73;5.03;;;;;;;;;;4715034;30;20052;-96
2023/12/27 11:38:13;;;;;;;14.05;6.13;;;;;;;;;;4715752;30;20064;-95
2023/12/27 11:40:40;;;;;;;10.93;5.22;;;;;;;;;;4729817;30;20087;-96
2023/12/27 11:43:08;;;;;;;19.90;7.43;;;;;;;;;;4730633;30;20593;-94
2023/12/27 11:45:58;;;;;;;9.70;5.15;;;;;;;;;;4730847;30;20052;-95
2023/12/27 11:48:27;;;;;;;11.27;5.65;;;;;;;;;;4730095;30;20056;-94
2023/12/27 11:50:54;;;;;;;10.75;5.90;;;;;;;;;;4743848;29;20048;-93
2023/12/27 11:53:24;;;;;;;11.30;5.82;;;;;;;;;;4733074;30;20095;-95
2023/12/27 11:55:51;;;;;;;13.73;6.75;;;;;;;;;;4732146;30;20052;-95
2023/12/27 11:58:29;;;;;;;16.65;6.25;;;;;;;;;;4731614;30;20063;-95
2023/12/27 12:01:18;;;;;;;14.85;6.90;;;;;;;;;;4747702;30;20084;-96
2023/12/27 12:03:47;;;;;;;12.45;8.20;;;;;;;;;;4733468;30;20146;-94
2023/12/27 12:06:22;;;;;;;16.67;6.55;;;;;;;;;;4734763;30;20056;-94
2023/12/27 12:08:48;;;;;;;16.33;6.60;;;;;;;;;;4734591;30;20083;-94
2023/12/27 12:11:15;;;;;;;17.65;6.55;;;;;;;;;;4759899;30;20146;-95
2023/12/27 12:13:41;;;;;;;16.95;6.68;;;;;;;;;;4766789;30;20476;-95
2023/12/27 12:16:08;;;;;;;12.07;6.88;;;;;;;;;;4765615;30;20056;-94
2023/12/27 12:18:35;;;;;;;16.20;8.65;;;;;;;;;;4764919;30;20056;-95
2023/12/27 12:21:01;;;;;;;14.77;7.57;;;;;;;;;;4747670;30;20082;-95
2023/12/27 12:23:37;;;;;;;10.88;5.80;;;;;;;;;;4717507;30;20104;-95
2023/12/27 12:26:04;;;;;;;14.35;7.18;;;;;;;;;;4734599;30;20048;-94
2023/12/27 12:28:30;;;;;;;20.77;8.18;;;;;;;;;;4732517;30;20058;-96
2023/12/27 12:30:57;;;;;;;14.32;7.07;;;;;;;;;;4733641;30;20056;-96
2023/12/27 12:33:24;;;;;;;13.30;6.07;;;;;;;;;;4732307;30;20139;-95
2023/12/27 12:35:51;;;;;;;13.88;6.47;;;;;;;;;;4731427;30;20056;-96
2023/12/27 12:38:19;;;;;;;15.27;7.53;;;;;;;;;;4731680;30;20165;-95
2023/12/27 12:40:47;;;;;;;13.55;6.90;;;;;;;;;;4730995;30;20090;-96
2023/12/27 12:43:15;;;;;;;13.80;7.30;;;;;;;;;;4729684;30;20052;-96
2023/12/27 12:45:41;;;;;;;11.10;7.50;;;;;;;;;;4728843;30;20056;-95
2023/12/27 12:48:07;;;;;;;15.05;7.70;;;;;;;;;;4715298;30;20067;-96
2023/12/27 12:50:34;;;;;;;11.93;7.07;;;;;;;;;;4729900;30;20083;-96
2023/12/27 12:53:20;;;;;;;10.43;6.90;;;;;;;;;;4731795;30;20064;-94
2023/12/27 12:55:47;;;;;;;10.63;6.65;;;;;;;;;;4717482;30;20135;-95
2023/12/27 12:58:13;;;;;;;13.35;7.65;;;;;;;;;;4728682;30;20563;-95
2023/12/27 13:00:39;;;;;;;10.32;6.93;;;;;;;;;;4729504;30;20147;-96
2023/12/27 13:03:06;;;;;;;9.23;7.05;;;;;;;;;;4731318;30;20117;-95
2023/12/27 13:05:32;;;;;;;12.73;8.45;;;;;;;;;;4732667;30;20477;-94
2023/12/27 13:07:58;;;;;;;11.93;8.35;;;;;;;;;;4734220;30;20059;-95
2023/12/27 13:10:25;;;;;;;15.20;7.97;;;;;;;;;;4747101;30;20052;-95
2023/12/27 13:12:51;;;;;;;13.95;8.20;;;;;;;;;;4747274;30;20056;-95
2023/12/27 13:15:19;;;;;;;15.80;8.55;;;;;;;;;;4746018;30;20056;-96
2023/12/27 13:17:46;;;;;;;11.20;8.20;;;;;;;;;;4744490;30;20079;-94
2023/12/27 13:20:13;;;;;;;13.55;8.20;;;;;;;;;;4747700;30;20052;-95
2023/12/27 13:22:39;;;;;;;12.50;8.65;;;;;;;;;;4748457;30;20056;-94
2023/12/27 13:25:05;;;;;;;11.60;7.95;;;;;;;;;;4719978;30;20063;-94
2023/12/27 13:27:31;;;;;;;12.45;9.07;;;;;;;;;;4733159;30;20113;-95
2023/12/27 13:29:57;;;;;;;12.10;9.02;;;;;;;;;;4719030;30;20063;-95
2023/12/27 13:32:23;;;;;;;11.68;8.80;;;;;;;;;;4732773;30;20072;-95
2023/12/27 13:34:50;;;;;;;11.95;9.98;;;;;;;;;;4730454;30;20064;-94
2023/12/27 13:37:18;;;;;;;12.93;9.13;;;;;;;;;;4727038;30;20056;-94
2023/12/27 13:39:45;;;;;;;17.70;10.93;;;;;;;;;;4733764;30;20082;-95
2023/12/27 13:42:11;;;;;;;13.90;10.18;;;;;;;;;;4732613;30;20119;-93
2023/12/27 13:44:38;;;;;;;18.30;11.20;;;;;;;;;;4732780;30;20060;-94
2023/12/27 13:47:04;;;;;;;15.18;10.40;;;;;;;;;;4732494;30;20071;-95
2023/12/27 13:49:30;;;;;;;15.00;9.88;;;;;;;;;;4732480;30;20048;-94
2023/12/27 13:51:56;;;;;;;17.23;10.73;;;;;;;;;;4732613;30;20446;-94
2023/12/27 13:54:22;;;;;;;18.55;12.15;;;;;;;;;;4731503;30;20056;-94
2023/12/27 13:56:48;;;;;;;18.67;12.25;;;;;;;;;;4731363;30;20060;-94
2023/12/27 13:59:15;;;;;;;17.52;11.68;;;;;;;;;;4745058;30;20522;-94
2023/12/27 14:01:41;;;;;;;18.98;12.30;;;;;;;;;;4719062;30;20064;-94
2023/12/27 14:04:08;;;;;;;20.10;13.02;;;;;;;;;;4732042;30;20056;-94
2023/12/27 14:06:36;;;;;;;19.38;13.68;;;;;;;;;;4732057;30;20060;-94
2023/12/27 14:09:03;;;;;;;26.17;15.73;;;;;;;;;;4733061;30;20116;-95
2023/12/27 14:11:30;;;;;;;18.23;13.43;;;;;;;;;;4732659;30;20064;-96
2023/12/27 14:13:57;;;;;;;25.98;13.63;;;;;;;;;;4731438;30;20120;-95
2023/12/27 14:16:25;;;;;;;24.65;15.32;;;;;;;;;;4730643;30;20063;-94
2023/12/27 14:18:53;;;;;;;24.15;13.68;;;;;;;;;;4731074;30;20048;-95
2023/12/27 14:21:20;;;;;;;25.60;14.68;;;;;;;;;;4718173;30;20056;-95
2023/12/27 14:23:46;;;;;;;20.15;15.00;;;;;;;;;;4731953;30;20052;-95
2023/12/27 14:26:12;;;;;;;24.70;15.50;;;;;;;;;;4732506;30;20095;-94
2023/12/27 14:28:38;;;;;;;23.13;14.02;;;;;;;;;;4733439;30;20052;-94
2023/12/27 14:31:05;;;;;;;21.38;14.45;;;;;;;;;;4719257;30;20056;-95
2023/12/27 14:33:31;;;;;;;21.63;15.75;;;;;;;;;;4732283;30;20064;-95
2023/12/27 14:35:57;;;;;;;26.75;15.02;;;;;;;;;;4730199;30;20537;-94
2023/12/27 14:38:23;;;;;;;22.88;14.95;;;;;;;;;;4732642;30;20099;-96
2023/12/27 14:40:49;;;;;;;26.83;14.07;;;;;;;;;;4733055;30;20092;-94